Flight Track Log - Related Links

Times and Time Zones

All times are in EST time to prevent confusion due to time zone crossing. See the N65537 flight status page for this flight to view local times or setup timezone preferences in your user account.

Time Position Orientation Groundspeed Altitude Reporting Facility
EST Latitude Longitude Course Direction KTS MPH feet Rate Location/Type
Mon 06:55:51 PM 33.8344 -118.1756 269° West  Level FlightAware Approximate
Mon 06:56:28 PM 33.8333 -118.2500 270° West 84 97 3,100  Level Southern California TRACON
Mon 06:57:22 PM 33.8333 -118.2667 301° West 82 94 3,800 450 Climbing Southern California TRACON
Mon 06:58:28 PM 33.8500 -118.3000 337° Northwest 92 106 4,000 95 Climbing Southern California TRACON
Mon 06:59:28 PM 33.8833 -118.3167 320° Northwest 97 112 4,000 -50 Level Southern California TRACON
Mon 07:00:28 PM 33.9000 -118.3333 320° Northwest 97 112 3,900 -53 Descending Southern California TRACON
Mon 07:01:22 PM 33.9167 -118.3500 301° West 93 107 3,900  Level Southern California TRACON
Mon 07:02:23 PM 33.9333 -118.3833 320° Northwest 89 102 3,900  Level Southern California TRACON
Mon 07:03:23 PM 33.9500 -118.4000 40° Northeast 104 120 3,900  Level Southern California TRACON
Mon 07:04:23 PM 33.9667 -118.3833 40° Northeast 81 93 3,900  Level Southern California TRACON
Mon 07:05:29 PM 33.9833 -118.3667 40° Northeast 83 96 3,900 50 Level Southern California TRACON
Mon 07:06:23 PM 34.0000 -118.3500 360° North 79 91 4,000  Climbing Southern California TRACON
Mon 07:07:23 PM 34.0333 -118.3500 40° Northeast 86 99 3,900 -200 Descending Southern California TRACON
Mon 07:08:23 PM 34.0500 -118.3333 360° North 79 91 3,600 -400 Descending Southern California TRACON
Mon 07:09:23 PM 34.0667 -118.3333 40° Northeast 82 94 3,100 -347 Descending Southern California TRACON
Mon 07:10:24 PM 34.0833 -118.3167 320° Northwest 88 101 2,900 -99 Descending Southern California TRACON
Mon 07:11:24 PM 34.1000 -118.3333 220° Southwest 99 114 2,900 -50 Level Southern California TRACON
Mon 07:12:24 PM 34.0833 -118.3500 239° Southwest 98 113 2,800 -333 Descending Southern California TRACON
Mon 07:13:30 PM 34.0667 -118.3833 228° Southwest 87 100 2,200 -545 Descending Southern California TRACON
Mon 07:20:51 PM 33.9597 -118.5262 228° Southwest  Level Estimated

Login

Don't have an account? Register now (free) for customized features, flight alerts, and more!